Time;durP1;ratioP1;P1;durP2;ratioP2;P2;SDS_P1;SDS_P2;PMS_P1;PMS_P2;Temp;Humidity;BMP_temperature;BMP_pressure;BME280_temperature;BME280_humidity;BME280_pressure;Samples;Min_cycle;Max_cycle;Signal;HPM_P1;HPM_P2
2022/05/13 00:00:11;;;;;;;6.12;3.98;;;;;;;12.75;64.28;98932.00;2132790;82;21012;-79
2022/05/13 00:03:14;;;;;;;5.15;3.20;;;;;;;12.79;65.37;98932.42;2153922;81;21039;-86
2022/05/13 00:06:15;;;;;;;3.27;3.02;;;;;;;12.83;65.92;98935.50;2152457;81;21048;-87
2022/05/13 00:09:15;;;;;;;4.85;3.33;;;;;;;12.85;65.47;98930.87;2164597;81;21517;-87
2022/05/13 00:12:16;;;;;;;4.83;3.35;;;;;;;12.89;65.30;98929.47;2166644;81;21069;-86
2022/05/13 00:18:51;;;;;;;6.72;3.65;;;;;;;12.88;64.81;98913.40;2138048;82;21665;-83
2022/05/13 00:21:52;;;;;;;3.67;3.37;;;;;;;12.87;64.28;98905.20;2161716;81;20981;-82
2022/05/13 00:24:53;;;;;;;4.35;3.72;;;;;;;12.88;63.61;98910.77;2149242;82;21067;-84
2022/05/13 00:27:54;;;;;;;6.35;3.60;;;;;;;12.91;63.39;98912.54;2128225;82;20992;-85
2022/05/13 00:30:54;;;;;;;7.37;3.00;;;;;;;12.91;63.11;98909.91;2131332;82;21088;-81
2022/05/13 00:33:55;;;;;;;6.70;3.05;;;;;;;12.91;62.86;98915.67;2147891;82;21504;-84
2022/05/13 00:36:56;;;;;;;4.65;3.27;;;;;;;12.91;63.18;98915.16;2164128;82;21002;-85
2022/05/13 00:39:57;;;;;;;4.90;4.00;;;;;;;12.92;63.14;98914.66;2131361;82;21035;-84
2022/05/13 00:42:57;;;;;;;4.33;3.92;;;;;;;12.91;62.95;98913.04;2140197;82;21100;-84
2022/05/13 00:45:58;;;;;;;8.65;4.15;;;;;;;12.89;62.68;98914.52;2147354;82;21654;-85
2022/05/13 00:48:59;;;;;;;7.17;3.55;;;;;;;12.90;62.87;98910.91;2143595;82;21095;-84
2022/05/13 00:52:00;;;;;;;7.28;4.50;;;;;;;12.89;62.65;98900.56;2145986;82;21029;-84
2022/05/13 00:55:01;;;;;;;5.83;4.03;;;;;;;12.90;63.03;98899.59;2162413;81;21132;-83
2022/05/13 00:58:02;;;;;;;8.88;4.97;;;;;;;12.89;63.43;98904.00;2132555;82;21636;-84
2022/05/13 01:01:04;;;;;;;6.17;4.28;;;;;;;12.88;63.44;98901.07;2132701;82;21125;-84
2022/05/13 01:04:05;;;;;;;4.08;3.62;;;;;;;12.88;63.34;98902.89;2132275;82;21008;-83
2022/05/13 01:07:05;;;;;;;6.85;3.80;;;;;;;12.87;63.65;98903.89;2149803;81;21512;-84
2022/05/13 01:10:06;;;;;;;13.62;4.65;;;;;;;12.84;63.67;98895.89;2167284;81;21135;-83
2022/05/13 01:13:07;;;;;;;5.20;4.40;;;;;;;12.84;63.94;98900.34;2160411;82;21104;-83
2022/05/13 01:16:08;;;;;;;4.70;4.03;;;;;;;12.84;63.76;98901.66;2163447;82;21022;-84
2022/05/13 01:19:08;;;;;;;5.95;4.83;;;;;;;12.83;63.48;98903.47;2131657;82;21091;-83
2022/05/13 01:22:10;;;;;;;5.30;4.30;;;;;;;12.83;63.53;98905.28;2144662;82;21131;-83
2022/05/13 01:25:11;;;;;;;6.10;4.65;;;;;;;12.80;63.16;98905.14;2149220;81;21043;-83
2022/05/13 01:28:12;;;;;;;6.22;4.50;;;;;;;12.79;63.69;98903.02;2141493;81;20982;-84
2022/05/13 01:31:12;;;;;;;5.00;4.50;;;;;;;12.83;63.34;98897.41;2166201;81;21083;-84
2022/05/13 01:34:13;;;;;;;5.00;3.95;;;;;;;12.80;63.13;98898.10;2146098;81;21020;-83
2022/05/13 01:37:14;;;;;;;5.03;4.37;;;;;;;12.87;63.68;98900.77;2138908;82;21009;-84
2022/05/13 01:40:15;;;;;;;7.17;4.20;;;;;;;12.91;64.34;98898.59;2127334;82;21008;-82
2022/05/13 01:43:15;;;;;;;4.85;4.42;;;;;;;12.94;64.29;98893.75;2169559;81;21010;-83
2022/05/13 01:46:16;;;;;;;6.62;4.72;;;;;;;12.96;64.84;98896.19;2146722;82;21044;-83
2022/05/13 01:49:17;;;;;;;8.83;4.83;;;;;;;12.99;65.04;98891.88;2146626;81;21017;-83
2022/05/13 01:52:18;;;;;;;10.32;4.35;;;;;;;12.99;65.03;98890.06;2158789;81;21045;-83
2022/05/13 01:55:19;;;;;;;5.50;4.10;;;;;;;13.01;65.70;98888.55;2138118;81;21052;-83
2022/05/13 01:58:20;;;;;;;4.53;3.70;;;;;;;12.96;65.69;98882.54;2134803;82;21028;-78
2022/05/13 02:01:20;;;;;;;5.00;4.58;;;;;;;12.96;65.69;98882.54;2152650;82;21024;-83
2022/05/13 02:04:21;;;;;;;5.80;3.40;;;;;;;12.95;66.72;98880.11;2169306;82;21053;-83
2022/05/13 02:07:22;;;;;;;8.30;4.00;;;;;;;12.95;67.34;98884.86;2140101;82;21453;-84
2022/05/13 02:10:23;;;;;;;5.25;4.50;;;;;;;13.00;67.11;98889.56;2127796;82;21646;-83
2022/05/13 02:13:25;;;;;;;6.03;4.65;;;;;;;13.05;66.72;98887.16;2154816;81;21555;-85
2022/05/13 02:16:26;;;;;;;8.03;5.05;;;;;;;13.02;66.77;98877.84;2157933;81;21418;-84
2022/05/13 02:19:26;;;;;;;10.78;5.97;;;;;;;13.06;67.08;98876.45;2160292;82;21088;-85
2022/05/13 02:22:27;;;;;;;10.68;6.22;;;;;;;13.13;67.22;98880.95;2159211;82;21029;-83
2022/05/13 02:25:30;;;;;;;8.93;5.85;;;;;;;13.17;67.62;98878.27;2170367;81;21040;-79
2022/05/13 02:28:31;;;;;;;7.85;4.70;;;;;;;13.19;67.49;98881.51;2144304;82;21027;-86
2022/05/13 02:31:32;;;;;;;7.60;4.25;;;;;;;13.16;67.99;98876.61;2148256;82;21033;-86
2022/05/13 02:34:36;;;;;;;8.53;4.17;;;;;;;13.10;68.12;98881.65;2135871;81;21076;-84
2022/05/13 02:37:35;;;;;;;5.00;4.50;;;;;;;13.07;68.31;98879.41;2169969;82;21136;-85
2022/05/13 02:43:56;;;;;;;5.72;4.58;;;;;;;12.98;69.61;98872.64;2155851;82;21017;-85
2022/05/13 02:46:56;;;;;;;5.08;4.17;;;;;;;12.90;70.00;98873.31;2133605;81;21083;-83
2022/05/13 02:53:16;;;;;;;5.10;3.52;;;;;;;12.75;69.71;98873.38;2151507;82;21104;-84
2022/05/13 02:56:17;;;;;;;5.15;3.85;;;;;;;12.70;70.09;98869.99;2151833;82;21547;-84
2022/05/13 02:59:18;;;;;;;6.05;3.42;;;;;;;12.69;70.44;98872.81;2143795;81;21121;-84
2022/05/13 03:02:19;;;;;;;9.10;6.17;;;;;;;12.72;70.98;98871.14;2153679;81;21040;-80
2022/05/13 03:05:19;;;;;;;9.98;5.78;;;;;;;12.78;71.54;98872.48;2148277;81;20970;-82
2022/05/13 03:08:20;;;;;;;7.30;4.67;;;;;;;12.86;71.62;98868.11;2147278;82;20998;-84
2022/05/13 03:11:21;;;;;;;6.40;4.05;;;;;;;12.89;70.89;98861.15;2158817;82;20986;-84
2022/05/13 03:14:21;;;;;;;7.47;4.47;;;;;;;12.89;70.74;98865.09;2136864;82;21048;-84
2022/05/13 03:17:22;;;;;;;5.90;4.05;;;;;;;12.92;71.58;98869.48;2158227;81;21002;-84
2022/05/13 03:20:23;;;;;;;9.63;4.62;;;;;;;12.98;71.33;98870.02;2143057;82;21124;-84
2022/05/13 03:23:24;;;;;;;4.87;3.47;;;;;;;13.02;71.51;98863.39;2143398;82;20994;-84
2022/05/13 03:26:24;;;;;;;6.78;3.85;;;;;;;13.13;71.45;98869.12;2136969;82;21103;-84
2022/05/13 03:29:25;;;;;;;7.65;4.25;;;;;;;13.22;70.72;98866.69;2164161;82;21072;-83
2022/05/13 03:32:26;;;;;;;9.23;4.33;;;;;;;13.35;70.17;98870.73;2153417;82;21064;-84
2022/05/13 03:35:26;;;;;;;8.93;6.12;;;;;;;13.37;70.72;98871.34;2159025;82;21337;-84
2022/05/13 03:38:27;;;;;;;6.67;5.72;;;;;;;13.39;71.35;98873.27;2157846;82;21076;-83
2022/05/13 03:41:28;;;;;;;9.63;5.87;;;;;;;13.54;71.13;98877.11;2158257;81;20985;-85
2022/05/13 03:44:28;;;;;;;5.45;4.83;;;;;;;13.59;71.37;98878.13;2161901;82;21032;-83
2022/05/13 03:47:29;;;;;;;9.03;4.22;;;;;;;13.64;71.12;98874.92;2127751;82;21024;-81
2022/05/13 03:50:30;;;;;;;9.23;4.72;;;;;;;13.70;70.90;98872.00;2146462;82;21005;-82
2022/05/13 03:53:30;;;;;;;8.28;5.55;;;;;;;13.68;70.56;98868.25;2161088;81;21059;-84
2022/05/13 03:56:31;;;;;;;6.58;4.72;;;;;;;13.77;70.43;98873.66;2150270;82;21049;-85
2022/05/13 03:59:32;;;;;;;4.87;4.47;;;;;;;13.78;70.51;98871.84;2155053;82;21006;-84
2022/05/13 04:02:32;;;;;;;6.75;4.33;;;;;;;13.80;70.96;98875.89;2133685;81;21055;-84
2022/05/13 04:08:59;;;;;;;7.80;4.87;;;;;;;13.85;71.39;98884.53;2152583;82;21019;-85
2022/05/13 04:18:38;;;;;;;9.15;4.50;;;;;;;14.01;71.49;98872.34;2163156;81;20982;-81
2022/05/13 04:21:38;;;;;;;6.67;4.60;;;;;;;14.16;71.67;98874.30;2136185;81;21040;-87
2022/05/13 04:24:39;;;;;;;6.30;4.72;;;;;;;14.34;71.21;98871.61;2163856;81;21113;-84
2022/05/13 04:27:41;;;;;;;19.67;5.83;;;;;;;14.44;71.47;98879.42;2148477;81;20993;-85
2022/05/13 04:30:41;;;;;;;9.50;5.55;;;;;;;14.63;71.04;98872.61;2144393;82;21036;-85
2022/05/13 04:33:42;;;;;;;9.00;5.12;;;;;;;14.83;70.29;98873.13;2150605;82;21013;-84
2022/05/13 04:36:43;;;;;;;7.53;5.10;;;;;;;15.01;70.28;98874.64;2163581;81;21120;-83
2022/05/13 04:39:43;;;;;;;9.88;5.25;;;;;;;15.61;68.93;98877.48;2155045;82;21084;-81
2022/05/13 04:42:50;;;;;;;7.85;5.33;;;;;;;15.89;67.62;98869.78;2149617;81;21032;-81
2022/05/13 04:45:53;;;;;;;;;;;;;;;16.21;67.05;98874.61;2143523;82;21061;-82
2022/05/13 04:48:53;;;;;;;7.78;3.98;;;;;;;16.53;65.15;98869.33;2160285;82;20382;-82
2022/05/13 04:51:54;;;;;;;9.38;4.70;;;;;;;16.60;63.82;98860.33;2144168;82;20994;-83
2022/05/13 04:54:55;;;;;;;6.58;4.10;;;;;;;16.92;62.84;98866.94;2154676;81;21156;-84
2022/05/13 04:57:56;;;;;;;6.35;4.08;;;;;;;17.21;61.65;98862.81;2146923;81;20959;-86
2022/05/13 05:00:56;;;;;;;6.55;3.75;;;;;;;17.35;60.26;98869.05;2159684;81;21132;-83
2022/05/13 05:03:57;;;;;;;15.13;4.10;;;;;;;17.66;59.15;98869.97;2141319;82;21049;-81
2022/05/13 05:06:58;;;;;;;18.27;4.47;;;;;;;17.97;58.81;98867.67;2146634;82;21005;-85
2022/05/13 05:09:59;;;;;;;11.00;3.83;;;;;;;18.61;58.10;98870.66;2156265;82;21095;-81
2022/05/13 05:12:59;;;;;;;9.50;3.42;;;;;;;18.99;56.21;98873.73;2167871;82;20997;-83
2022/05/13 05:16:00;;;;;;;11.70;4.20;;;;;;;19.19;55.37;98867.28;2142121;82;20998;-80
2022/05/13 05:19:01;;;;;;;5.25;2.85;;;;;;;19.47;53.93;98873.20;2168955;82;21050;-81
2022/05/13 05:22:01;;;;;;;4.47;3.35;;;;;;;19.85;52.45;98874.05;2163083;81;21492;-83
2022/05/13 05:25:02;;;;;;;5.45;3.45;;;;;;;19.95;51.99;98877.42;2158189;82;21004;-83
2022/05/13 05:28:03;;;;;;;5.58;3.20;;;;;;;20.13;52.34;98879.38;2155459;81;21048;-83
2022/05/13 05:31:03;;;;;;;4.40;3.25;;;;;;;20.27;51.06;98877.22;2156146;82;20962;-81
2022/05/13 05:34:04;;;;;;;5.40;3.77;;;;;;;20.34;51.35;98879.22;2152499;81;21533;-84
2022/05/13 05:37:05;;;;;;;7.47;3.10;;;;;;;20.32;51.58;98874.67;2133511;81;21084;-83
2022/05/13 05:40:06;;;;;;;5.35;3.27;;;;;;;20.33;50.76;98876.80;2144965;82;21576;-86
2022/05/13 05:43:06;;;;;;;15.45;3.67;;;;;;;20.14;51.08;98874.86;2127709;82;21036;-84
2022/05/13 05:46:07;;;;;;;13.40;4.37;;;;;;;20.11;50.76;98877.45;2163110;81;21524;-82
2022/05/13 05:49:08;;;;;;;5.05;3.52;;;;;;;20.16;50.54;98878.89;2164889;81;21053;-83
2022/05/13 05:52:09;;;;;;;4.10;3.55;;;;;;;20.20;50.81;98881.06;2152592;82;21579;-84
2022/05/13 05:58:30;;;;;;;5.60;3.65;;;;;;;20.25;50.23;98879.84;2143986;81;21037;-85
2022/05/13 06:01:30;;;;;;;3.72;3.08;;;;;;;20.26;50.02;98883.59;2140909;82;22132;-85
2022/05/13 06:04:31;;;;;;;3.75;3.30;;;;;;;20.39;50.15;98880.66;2143614;82;21616;-84
2022/05/13 06:07:32;;;;;;;3.45;2.90;;;;;;;20.39;49.64;98883.31;2144796;82;20990;-84
2022/05/13 06:10:32;;;;;;;6.35;3.22;;;;;;;20.33;49.43;98882.13;2154340;81;21073;-84
2022/05/13 06:13:33;;;;;;;5.25;2.60;;;;;;;20.42;48.98;98882.02;2172378;81;21532;-83
2022/05/13 06:16:34;;;;;;;3.92;2.75;;;;;;;20.46;48.63;98889.82;2136538;82;20966;-83
2022/05/13 06:19:35;;;;;;;4.90;1.82;;;;;;;20.48;49.07;98878.94;2161680;82;21539;-84
2022/05/13 06:22:35;;;;;;;2.67;2.35;;;;;;;20.62;48.43;98881.59;2157346;81;21035;-86
2022/05/13 06:25:36;;;;;;;3.20;2.08;;;;;;;20.86;48.77;98887.06;2132879;81;21605;-86
2022/05/13 06:28:37;;;;;;;4.40;2.10;;;;;;;21.13;48.30;98882.41;2156318;82;21013;-83
2022/05/13 06:31:38;;;;;;;6.35;2.35;;;;;;;21.48;48.12;98886.91;2138271;82;21053;-86
2022/05/13 06:34:39;;;;;;;3.77;2.40;;;;;;;21.79;48.07;98886.80;2161279;82;21190;-83
2022/05/13 06:37:40;;;;;;;2.20;1.92;;;;;;;21.98;47.08;98879.82;2144932;81;21470;-87
2022/05/13 06:40:41;;;;;;;7.35;2.05;;;;;;;22.02;46.70;98873.73;2167011;82;21040;-86
2022/05/13 06:43:42;;;;;;;3.17;2.00;;;;;;;22.09;46.90;98877.05;2157080;82;21117;-85
2022/05/13 06:46:43;;;;;;;4.00;1.85;;;;;;;22.34;46.76;98877.84;2157998;82;21028;-85
2022/05/13 06:49:44;;;;;;;2.25;1.98;;;;;;;22.56;46.00;98872.44;2159451;82;21036;-85
2022/05/13 06:52:45;;;;;;;5.90;2.05;;;;;;;22.80;45.73;98872.11;2150438;82;21596;-83
2022/05/13 06:55:45;;;;;;;4.22;1.70;;;;;;;23.02;45.51;98862.68;2141027;81;21024;-81
2022/05/13 06:58:46;;;;;;;10.13;2.60;;;;;;;23.35;44.98;98861.56;2158147;82;21072;-82
2022/05/13 07:01:47;;;;;;;2.98;1.80;;;;;;;23.54;44.79;98858.19;2152236;82;21667;-81
2022/05/13 07:04:48;;;;;;;6.12;1.92;;;;;;;23.72;44.26;98862.30;2162285;81;21049;-82
2022/05/13 07:07:48;;;;;;;3.83;2.10;;;;;;;23.86;43.60;98858.59;2134128;82;21567;-82
2022/05/13 07:10:49;;;;;;;3.08;1.72;;;;;;;23.91;42.74;98861.30;2169765;82;21037;-82
2022/05/13 07:13:50;;;;;;;5.92;2.55;;;;;;;23.98;42.61;98863.20;2156574;82;21113;-82
2022/05/13 07:16:51;;;;;;;2.33;1.50;;;;;;;24.06;42.25;98862.69;2127529;82;21016;-82
2022/05/13 07:19:52;;;;;;;5.42;2.20;;;;;;;24.09;41.90;98859.48;2156030;82;21033;-82
2022/05/13 07:22:53;;;;;;;2.83;1.20;;;;;;;24.20;41.85;98862.98;2162018;81;21037;-81
2022/05/13 07:25:53;;;;;;;2.70;1.50;;;;;;;24.30;41.44;98861.66;2162114;82;20986;-81
2022/05/13 07:28:54;;;;;;;2.80;1.50;;;;;;;24.32;40.69;98860.91;2158637;81;21014;-81
2022/05/13 07:31:55;;;;;;;2.37;1.12;;;;;;;24.24;37.89;98856.05;2127702;82;21598;-81
2022/05/13 07:34:56;;;;;;;2.35;1.17;;;;;;;24.12;38.53;98857.61;2139090;82;21001;-80
2022/05/13 07:37:56;;;;;;;1.60;1.07;;;;;;;24.16;37.79;98861.91;2169876;82;21032;-83
2022/05/13 07:44:16;;;;;;;3.95;1.20;;;;;;;24.02;36.81;98857.58;2134852;82;21125;-82
2022/05/13 07:47:17;;;;;;;3.08;1.45;;;;;;;24.05;37.67;98865.10;2146705;81;21064;-81
2022/05/13 07:50:17;;;;;;;1.22;1.15;;;;;;;23.93;36.10;98862.38;2154053;81;21001;-81
2022/05/13 07:53:18;;;;;;;2.65;1.22;;;;;;;23.69;37.12;98866.05;2152805;81;20997;-81
2022/05/13 07:56:19;;;;;;;1.72;1.62;;;;;;;23.58;36.37;98870.48;2168398;81;21099;-79
2022/05/13 07:59:20;;;;;;;3.17;1.72;;;;;;;23.41;36.38;98869.86;2158842;82;21005;-82
2022/05/13 08:02:20;;;;;;;2.42;1.40;;;;;;;23.34;36.92;98874.11;2127733;82;21073;-81
2022/05/13 08:05:22;;;;;;;1.87;1.00;;;;;;;23.24;35.84;98878.87;2150406;82;21088;-81
2022/05/13 08:08:22;;;;;;;2.30;1.02;;;;;;;23.25;35.90;98875.13;2169709;81;21692;-81
2022/05/13 08:11:23;;;;;;;1.77;1.12;;;;;;;23.25;35.51;98873.80;2155790;82;21067;-80
2022/05/13 08:14:24;;;;;;;0.93;0.60;;;;;;;23.17;35.34;98872.94;2143956;82;21103;-82
2022/05/13 08:17:25;;;;;;;3.05;1.60;;;;;;;23.11;35.38;98877.16;2156159;81;21064;-81
2022/05/13 08:20:26;;;;;;;3.40;1.07;;;;;;;23.01;35.17;98873.09;2148632;82;21425;-82
2022/05/13 08:23:27;;;;;;;1.47;1.12;;;;;;;22.99;35.47;98874.69;2151477;81;21041;-81
2022/05/13 08:26:28;;;;;;;1.40;1.30;;;;;;;23.02;35.30;98874.70;2148844;81;21098;-82
2022/05/13 08:29:29;;;;;;;2.45;1.50;;;;;;;22.98;35.00;98867.74;2161122;81;21048;-80
2022/05/13 08:32:30;;;;;;;2.80;1.65;;;;;;;23.01;35.61;98864.55;2144244;81;21045;-84
2022/05/13 08:35:31;;;;;;;3.65;0.90;;;;;;;23.01;35.70;98867.22;2132713;82;21040;-83
2022/05/13 08:38:32;;;;;;;2.15;1.00;;;;;;;23.08;35.73;98868.34;2163967;81;21517;-84
2022/05/13 08:41:32;;;;;;;1.87;1.00;;;;;;;23.02;34.53;98864.81;2136949;82;21092;-84
2022/05/13 08:44:33;;;;;;;2.77;1.22;;;;;;;23.01;34.79;98868.55;2151223;81;21005;-84
2022/05/13 08:47:34;;;;;;;1.37;1.05;;;;;;;23.02;34.14;98857.34;2127615;82;21045;-84
2022/05/13 08:50:37;;;;;;;3.70;0.88;;;;;;;22.93;33.73;98864.48;2155837;82;21025;-84
2022/05/13 08:53:37;;;;;;;2.33;1.12;;;;;;;22.89;33.68;98854.06;2164403;82;21544;-84
2022/05/13 08:56:38;;;;;;;4.72;1.50;;;;;;;22.75;34.02;98854.17;2138352;82;21017;-84
2022/05/13 08:59:38;;;;;;;2.67;0.90;;;;;;;22.65;34.13;98846.89;2141732;81;21058;-84
2022/05/13 09:02:39;;;;;;;1.05;0.82;;;;;;;22.43;33.26;98851.52;2154946;82;21033;-82
2022/05/13 09:05:40;;;;;;;2.90;1.10;;;;;;;22.24;33.71;98846.27;2151700;82;21510;-84
2022/05/13 09:08:41;;;;;;;2.55;1.50;;;;;;;22.12;33.80;98842.40;2130783;82;21036;-82
2022/05/13 09:11:41;;;;;;;2.35;1.00;;;;;;;22.02;33.75;98842.27;2167545;81;21037;-82
2022/05/13 09:14:42;;;;;;;22.40;10.88;;;;;;;21.97;34.52;98836.37;2133142;82;21036;-82
2022/05/13 09:17:43;;;;;;;0.80;0.80;;;;;;;21.97;34.54;98839.56;2162115;81;21053;-80
2022/05/13 09:20:44;;;;;;;2.67;1.15;;;;;;;21.94;34.06;98832.84;2139517;82;20985;-80
2022/05/13 09:23:44;;;;;;;1.95;0.90;;;;;;;21.88;34.40;98826.41;2162088;81;21033;-87
2022/05/13 09:26:45;;;;;;;1.67;1.20;;;;;;;21.91;34.32;98821.36;2147081;82;20997;-81
2022/05/13 09:29:46;;;;;;;0.95;0.80;;;;;;;21.92;35.48;98815.50;2151823;82;21065;-84
2022/05/13 09:32:47;;;;;;;10.90;1.50;;;;;;;22.02;35.93;98812.94;2169056;81;21535;-81
2022/05/13 09:35:48;;;;;;;2.40;1.20;;;;;;;22.11;35.66;98812.27;2141557;82;21048;-82
2022/05/13 09:38:48;;;;;;;1.50;1.15;;;;;;;22.17;34.87;98802.47;2152343;81;21045;-82
2022/05/13 09:41:52;;;;;;;2.58;1.10;;;;;;;22.13;34.83;98800.05;2141431;81;21035;-82
2022/05/13 09:44:52;;;;;;;0.85;0.60;;;;;;;22.13;35.67;98789.37;2140255;82;21085;-83
2022/05/13 09:47:52;;;;;;;1.60;0.88;;;;;;;22.15;35.00;98779.25;2146012;82;21009;-82
2022/05/13 09:50:53;;;;;;;2.70;1.10;;;;;;;22.11;35.10;98772.80;2167854;81;21076;-82
2022/05/13 09:53:54;;;;;;;4.40;1.10;;;;;;;22.17;35.81;98766.47;2154434;82;21021;-83
2022/05/13 09:56:55;;;;;;;3.92;1.45;;;;;;;22.19;34.97;98762.21;2129520;82;21028;-83
2022/05/13 09:59:56;;;;;;;1.50;1.40;;;;;;;22.29;35.20;98754.30;2154278;82;20986;-83
2022/05/13 10:02:56;;;;;;;1.40;1.20;;;;;;;22.58;35.90;98752.11;2152746;81;21040;-82
2022/05/13 10:05:57;;;;;;;2.22;0.93;;;;;;;22.82;35.07;98748.53;2158222;81;21512;-83
2022/05/13 10:13:57;;;;;;;3.05;0.85;;;;;;;23.01;34.58;98747.59;2147863;81;21016;-84
2022/05/13 10:15:20;;;;;;;2.80;0.88;;;;;;;23.55;34.07;98736.87;2158376;82;21560;-83
2022/05/13 10:18:21;;;;;;;0.88;0.62;;;;;;;23.76;33.11;98739.08;2170087;81;21108;-83
2022/05/13 10:21:22;;;;;;;1.60;1.00;;;;;;;23.88;32.76;98731.36;2166386;82;20982;-82
2022/05/13 10:24:22;;;;;;;16.67;1.80;;;;;;;23.97;32.09;98730.57;2155990;81;21084;-81
2022/05/13 10:27:23;;;;;;;4.87;1.77;;;;;;;24.09;32.47;98731.64;2163828;82;21067;-81
2022/05/13 10:30:25;;;;;;;2.60;0.90;;;;;;;24.19;32.41;98730.30;2163455;81;21053;-83
2022/05/13 10:33:26;;;;;;;4.47;1.32;;;;;;;24.30;32.19;98727.09;2140151;81;21568;-82
2022/05/13 10:36:27;;;;;;;3.55;1.07;;;;;;;24.31;32.73;98716.14;2148913;82;21043;-83
2022/05/13 10:39:30;;;;;;;3.35;1.07;;;;;;;24.33;33.07;98710.01;2150049;82;21477;-83
2022/05/13 10:42:30;;;;;;;2.00;1.20;;;;;;;24.43;32.59;98712.41;2133758;82;21092;-83
2022/05/13 10:45:31;;;;;;;1.70;0.70;;;;;;;24.56;32.46;98709.16;2151216;82;21123;-83
2022/05/13 10:48:32;;;;;;;1.00;0.80;;;;;;;24.73;32.76;98711.55;2142973;81;21017;-83
2022/05/13 10:51:33;;;;;;;1.20;0.80;;;;;;;24.82;32.73;98704.56;2146639;81;21022;-82
2022/05/13 10:54:34;;;;;;;4.28;0.78;;;;;;;24.90;31.86;98702.66;2163126;82;21062;-82
2022/05/13 10:57:34;;;;;;;2.47;1.12;;;;;;;24.91;31.80;98688.20;2169781;82;21056;-83
2022/05/13 11:00:35;;;;;;;1.72;0.90;;;;;;;24.79;31.71;98693.86;2127800;82;21025;-83
2022/05/13 11:03:36;;;;;;;2.75;1.22;;;;;;;24.58;31.31;98692.30;2133714;82;20982;-82
2022/05/13 11:06:37;;;;;;;2.12;1.20;;;;;;;24.33;31.21;98683.80;2164305;82;21538;-83
2022/05/13 11:09:37;;;;;;;2.35;1.00;;;;;;;24.19;31.40;98675.47;2147419;81;21080;-82
2022/05/13 11:12:38;;;;;;;2.77;1.45;;;;;;;24.08;32.08;98677.89;2163227;81;21041;-82
2022/05/13 11:15:39;;;;;;;3.50;1.20;;;;;;;23.96;32.55;98673.35;2169583;81;21116;-83
2022/05/13 11:18:41;;;;;;;1.57;0.93;;;;;;;23.93;32.82;98673.33;2139970;81;21501;-82
2022/05/13 11:21:42;;;;;;;4.30;1.30;;;;;;;23.93;33.03;98671.20;2134215;81;21552;-82
2022/05/13 11:28:02;;;;;;;3.25;1.45;;;;;;;24.00;32.08;98665.85;2135884;81;21018;-80
2022/05/13 11:31:04;;;;;;;7.17;1.30;;;;;;;24.08;32.94;98662.64;2134913;82;21037;-81
2022/05/13 11:34:05;;;;;;;2.15;0.90;;;;;;;24.25;33.44;98665.58;2140244;82;21069;-80
2022/05/13 11:37:06;;;;;;;1.77;1.20;;;;;;;24.35;33.20;98670.94;2146362;82;21080;-79
2022/05/13 11:40:12;;;;;;;6.05;1.15;;;;;;;24.36;31.92;98661.84;2140044;81;21068;-83
2022/05/13 11:43:21;;;;;;;1.30;0.88;;;;;;;24.40;32.21;98657.00;2150564;82;21033;-82
2022/05/13 11:46:25;;;;;;;1.30;1.07;;;;;;;24.47;31.55;98654.05;2155972;82;21075;-82
2022/05/13 11:49:26;;;;;;;2.30;0.80;;;;;;;24.46;31.86;98643.63;2128461;82;21088;-79
2022/05/13 11:52:28;;;;;;;2.05;1.02;;;;;;;24.60;32.23;98640.12;2160074;81;21607;-80
2022/05/13 11:55:28;;;;;;;1.50;0.93;;;;;;;24.73;32.71;98641.94;2162286;81;21085;-81
2022/05/13 11:58:29;;;;;;;2.90;0.90;;;;;;;24.88;33.15;98641.89;2151799;82;21005;-80
2022/05/13 12:01:29;;;;;;;2.80;0.88;;;;;;;25.02;32.82;98632.71;2135833;82;20997;-79
2022/05/13 12:04:30;;;;;;;1.80;0.70;;;;;;;25.06;33.08;98619.88;2162836;82;21500;-82
2022/05/13 12:07:31;;;;;;;1.05;0.78;;;;;;;25.08;32.59;98606.20;2146363;82;21013;-82
2022/05/13 12:10:32;;;;;;;2.08;1.30;;;;;;;25.12;32.54;98593.30;2150780;81;20993;-83
2022/05/13 12:13:33;;;;;;;1.42;1.00;;;;;;;25.18;32.47;98594.09;2128033;82;21044;-83
2022/05/13 12:16:33;;;;;;;3.12;1.00;;;;;;;25.22;31.80;98589.22;2151796;81;21492;-82
2022/05/13 12:19:34;;;;;;;2.70;1.45;;;;;;;25.27;31.40;98574.20;2154636;81;21112;-83
2022/05/13 12:22:36;;;;;;;2.87;1.07;;;;;;;25.32;32.17;98579.52;2157593;82;21068;-82
2022/05/13 12:25:37;;;;;;;1.95;0.88;;;;;;;25.40;32.53;98585.08;2170061;82;21010;-82
2022/05/13 12:28:37;;;;;;;5.20;1.37;;;;;;;25.56;32.67;98579.62;2150944;82;20969;-83
2022/05/13 12:31:38;;;;;;;4.60;1.87;;;;;;;25.64;32.07;98573.66;2149642;82;21064;-85
2022/05/13 12:37:58;;;;;;;1.57;1.17;;;;;;;25.71;31.62;98577.66;2171282;82;21061;-85
2022/05/13 12:40:59;;;;;;;2.67;1.32;;;;;;;25.86;31.34;98578.58;2164742;81;21092;-83
2022/05/13 12:44:01;;;;;;;4.22;1.22;;;;;;;26.00;31.29;98577.65;2147371;81;21036;-82
2022/05/13 12:47:02;;;;;;;3.12;1.35;;;;;;;26.13;31.43;98578.05;2143399;82;21036;-83
2022/05/13 12:50:03;;;;;;;1.20;1.10;;;;;;;26.27;31.37;98580.33;2146076;82;21021;-82
2022/05/13 12:53:03;;;;;;;2.30;1.30;;;;;;;26.26;30.56;98574.70;2168990;81;21109;-83
2022/05/13 12:56:04;;;;;;;1.87;1.20;;;;;;;26.17;30.52;98575.08;2159301;81;21636;-83
2022/05/13 12:59:05;;;;;;;1.50;1.20;;;;;;;26.04;30.12;98563.91;2145291;82;21508;-82
2022/05/13 13:02:08;;;;;;;2.02;1.42;;;;;;;25.92;29.99;98566.19;2156396;81;21516;-83
2022/05/13 13:05:09;;;;;;;2.05;1.22;;;;;;;25.83;30.22;98559.05;2138595;82;21026;-81
2022/05/13 13:08:10;;;;;;;2.27;1.65;;;;;;;25.71;30.09;98546.81;2147820;82;21539;-81
2022/05/13 13:11:11;;;;;;;1.98;1.40;;;;;;;25.73;30.25;98548.67;2149774;82;21029;-82
2022/05/13 13:14:11;;;;;;;2.50;1.25;;;;;;;25.80;30.76;98549.15;2132513;82;21160;-84
2022/05/13 13:17:19;;;;;;;3.27;1.40;;;;;;;25.93;31.44;98540.97;2163386;82;20986;-82
2022/05/13 13:20:14;;;;;;;4.53;1.52;;;;;;;26.05;31.33;98534.66;2159115;81;21073;-84
2022/05/13 13:23:16;;;;;;;3.35;1.30;;;;;;;26.08;31.06;98530.63;2144812;81;21005;-87
2022/05/13 13:26:16;;;;;;;3.37;1.27;;;;;;;26.22;31.34;98541.47;2143173;81;21044;-87
2022/05/13 13:29:17;;;;;;;3.87;1.37;;;;;;;26.33;31.48;98537.06;2170177;81;21076;-86
2022/05/13 13:32:18;;;;;;;4.90;1.67;;;;;;;26.42;30.71;98532.41;2156443;82;21070;-82
2022/05/13 13:35:19;;;;;;;2.70;1.45;;;;;;;26.30;31.09;98531.45;2158725;82;21080;-85
2022/05/13 13:38:19;;;;;;;5.70;1.70;;;;;;;26.13;30.84;98539.15;2160429;81;21038;-85
2022/05/13 13:41:20;;;;;;;4.35;1.60;;;;;;;26.00;31.09;98536.08;2164023;81;20986;-87
2022/05/13 13:44:21;;;;;;;6.17;1.77;;;;;;;25.96;31.25;98532.88;2168951;81;21037;-85
2022/05/13 13:47:21;;;;;;;3.95;1.65;;;;;;;25.98;31.35;98529.41;2168441;81;21496;-85
2022/05/13 13:50:22;;;;;;;2.17;1.45;;;;;;;26.03;31.67;98510.55;2171970;81;21030;-90
2022/05/13 13:53:26;;;;;;;10.55;2.25;;;;;;;26.09;31.73;98502.72;2171462;81;21081;-87
2022/05/13 13:56:28;;;;;;;5.15;2.25;;;;;;;26.16;31.66;98509.89;2169856;81;21581;-84
2022/05/13 13:59:32;;;;;;;3.02;1.62;;;;;;;26.07;31.57;98511.05;2169035;81;21021;-87
2022/05/13 14:02:31;;;;;;;2.10;1.57;;;;;;;26.00;31.37;98501.75;2170924;81;21077;-84
2022/05/13 14:05:32;;;;;;;3.37;1.27;;;;;;;26.02;31.69;98503.05;2168453;81;21059;-83
2022/05/13 14:08:32;;;;;;;2.25;1.57;;;;;;;26.07;31.91;98488.25;2164515;81;21064;-85
2022/05/13 14:11:33;;;;;;;3.22;1.70;;;;;;;26.21;31.87;98482.98;2168493;81;20987;-82
2022/05/13 14:14:34;;;;;;;3.27;1.67;;;;;;;26.19;31.66;98474.42;2167877;81;21095;-83
2022/05/13 14:17:34;;;;;;;3.37;1.35;;;;;;;26.01;31.79;98471.16;2164925;81;21060;-85
2022/05/13 14:20:35;;;;;;;3.22;2.10;;;;;;;25.86;31.94;98460.59;2168904;81;21029;-83
2022/05/13 14:23:36;;;;;;;3.22;1.70;;;;;;;25.75;32.25;98455.88;2166588;81;21066;-84
2022/05/13 14:26:36;;;;;;;3.22;1.85;;;;;;;25.63;31.97;98450.09;2169931;81;21084;-84
2022/05/13 14:29:37;;;;;;;3.10;1.60;;;;;;;25.35;31.90;98452.50;2165313;81;21001;-84
2022/05/13 14:32:38;;;;;;;3.35;1.22;;;;;;;25.15;31.76;98441.97;2168866;81;21102;-84
2022/05/13 14:35:39;;;;;;;3.10;1.77;;;;;;;24.91;31.87;98444.52;2165657;81;21049;-83
2022/05/13 14:41:58;;;;;;;3.55;1.72;;;;;;;24.67;32.09;98426.47;2169573;81;21037;-85
2022/05/13 14:44:59;;;;;;;7.08;2.22;;;;;;;24.60;32.37;98420.65;2167360;81;21032;-84
2022/05/13 14:48:00;;;;;;;5.35;1.70;;;;;;;24.46;32.29;98410.29;2167244;81;20969;-85
2022/05/13 14:51:00;;;;;;;1.77;1.67;;;;;;;24.41;32.15;98414.32;2167401;81;21029;-85